createdAt,value
2018-08-18T00:00:15.609Z,70.08
2018-08-18T00:02:44.383Z,70.07
2018-08-18T00:05:13.599Z,70.34
2018-08-18T00:07:42.457Z,70.50
2018-08-18T00:10:13.001Z,70.33
2018-08-18T00:12:41.383Z,70.51
2018-08-18T00:15:09.967Z,70.95
2018-08-18T00:17:39.742Z,71.23
2018-08-18T00:20:11.322Z,71.65
2018-08-18T00:22:39.581Z,72.41
2018-08-18T00:25:09.431Z,73.12
2018-08-18T00:27:38.839Z,73.41
2018-08-18T00:30:41.928Z,73.79
2018-08-18T00:33:13.541Z,73.99
2018-08-18T00:35:43.996Z,74.32
2018-08-18T00:38:12.320Z,74.37
2018-08-18T00:40:41.256Z,74.29
2018-08-18T00:43:10.332Z,74.24
2018-08-18T00:45:43.886Z,74.44
2018-08-18T00:48:13.586Z,74.36
2018-08-18T00:50:43.807Z,74.46
2018-08-18T00:53:14.640Z,74.61
2018-08-18T00:55:43.411Z,74.57
2018-08-18T00:58:16.509Z,74.66
2018-08-18T01:00:49.628Z,74.37
2018-08-18T01:03:20.740Z,74.21
2018-08-18T01:05:49.622Z,74.27
2018-08-18T01:08:18.733Z,74.48
2018-08-18T01:10:48.152Z,74.50
2018-08-18T01:13:17.079Z,74.87
2018-08-18T01:15:45.920Z,75.02
2018-08-18T01:18:14.516Z,75.25
2018-08-18T01:20:42.949Z,75.16
2018-08-18T01:23:11.128Z,75.25
2018-08-18T01:25:41.096Z,75.48
2018-08-18T01:28:09.842Z,75.59
2018-08-18T01:30:38.622Z,75.45
2018-08-18T01:33:07.790Z,75.38
2018-08-18T01:35:36.140Z,75.18
2018-08-18T01:38:05.740Z,75.37
2018-08-18T01:40:34.615Z,75.30
2018-08-18T01:43:02.803Z,75.35
2018-08-18T01:45:31.700Z,75.68
2018-08-18T01:48:00.450Z,75.67
2018-08-18T01:50:29.192Z,75.62
2018-08-18T01:52:57.824Z,75.44
2018-08-18T01:55:26.728Z,75.34
2018-08-18T01:57:55.209Z,75.62
2018-08-18T02:00:24.938Z,75.74
2018-08-18T02:02:54.562Z,75.87
2018-08-18T02:05:23.130Z,75.88
2018-08-18T02:07:52.204Z,75.65
2018-08-18T02:10:21.330Z,75.48
2018-08-18T02:13:02.556Z,75.30
2018-08-18T02:15:31.492Z,75.10
2018-08-18T02:18:00.262Z,74.85
2018-08-18T02:20:28.622Z,74.72
2018-08-18T02:22:57.099Z,74.65
2018-08-18T02:25:25.604Z,74.59
2018-08-18T02:27:53.939Z,74.43
2018-08-18T02:30:23.049Z,74.56
2018-08-18T02:32:52.052Z,74.36
2018-08-18T02:35:22.425Z,74.31
2018-08-18T02:37:52.308Z,73.94
2018-08-18T02:40:21.338Z,74.04
2018-08-18T02:42:49.954Z,74.04
2018-08-18T02:45:18.285Z,73.93
2018-08-18T02:47:47.051Z,74.03
2018-08-18T02:50:15.436Z,74.31
2018-08-18T02:52:43.892Z,74.17
2018-08-18T02:55:12.699Z,74.03
2018-08-18T02:57:42.538Z,74.25
2018-08-18T03:00:22.765Z,74.19
2018-08-18T03:02:51.787Z,74.12
2018-08-18T03:05:20.358Z,74.61
2018-08-18T03:07:50.266Z,74.64
2018-08-18T03:10:26.954Z,74.87
2018-08-18T03:12:59.829Z,75.13
2018-08-18T03:16:01.160Z,75.22
2018-08-18T03:18:35.903Z,75.44
2018-08-18T03:21:05.884Z,75.73
2018-08-18T03:23:36.235Z,76.07
2018-08-18T03:26:05.231Z,76.18
2018-08-18T03:28:41.881Z,76.44
2018-08-18T03:31:11.054Z,76.85
2018-08-18T03:33:40.690Z,77.00
2018-08-18T03:36:23.348Z,77.38
2018-08-18T03:38:53.546Z,77.48
2018-08-18T03:41:23.227Z,77.60
2018-08-18T03:43:52.679Z,77.62
2018-08-18T03:46:21.884Z,77.76
2018-08-18T03:48:50.871Z,78.13
2018-08-18T03:51:19.960Z,77.77
2018-08-18T03:53:48.384Z,77.82
2018-08-18T03:56:16.864Z,78.14
2018-08-18T03:58:53.972Z,77.92
2018-08-18T04:01:39.151Z,78.13
2018-08-18T04:04:08.852Z,77.99
2018-08-18T04:06:42.419Z,77.77
2018-08-18T04:09:15.985Z,77.52
2018-08-18T04:11:47.546Z,77.49
2018-08-18T04:14:18.737Z,77.56
2018-08-18T04:16:49.007Z,77.55
2018-08-18T04:19:18.481Z,77.49
2018-08-18T04:21:48.362Z,77.57
2018-08-18T04:24:16.866Z,77.65
2018-08-18T04:26:48.030Z,77.52
2018-08-18T04:29:16.983Z,77.57
2018-08-18T04:31:45.582Z,77.43
2018-08-18T04:34:14.060Z,77.54
2018-08-18T04:36:42.514Z,77.58
2018-08-18T04:39:11.896Z,77.64
2018-08-18T04:41:41.554Z,77.77
2018-08-18T04:44:10.531Z,77.66
2018-08-18T04:46:39.088Z,77.65
2018-08-18T04:49:07.610Z,77.52
2018-08-18T04:51:36.192Z,77.49
2018-08-18T04:54:04.831Z,77.59
2018-08-18T04:56:33.628Z,77.45
2018-08-18T04:59:02.506Z,77.36
2018-08-18T05:01:30.908Z,77.47
2018-08-18T05:04:03.520Z,77.41
2018-08-18T05:06:32.974Z,77.31
2018-08-18T05:09:03.158Z,77.22
2018-08-18T05:11:31.916Z,77.34
2018-08-18T05:14:00.785Z,77.45
2018-08-18T05:16:28.990Z,77.46
2018-08-18T05:18:57.179Z,77.46
2018-08-18T05:21:26.872Z,77.42
2018-08-18T05:23:55.442Z,77.41
2018-08-18T05:26:23.859Z,77.43
2018-08-18T05:28:52.902Z,77.77
2018-08-18T05:31:21.932Z,77.94
2018-08-18T05:33:50.198Z,77.83
2018-08-18T05:36:18.607Z,77.64
2018-08-18T05:38:47.122Z,77.57
2018-08-18T05:41:15.698Z,77.48
2018-08-18T05:43:49.211Z,77.09
2018-08-18T05:46:18.137Z,77.04
2018-08-18T05:48:46.954Z,77.09
2018-08-18T05:51:15.193Z,76.87
2018-08-18T05:53:43.830Z,76.71
2018-08-18T05:56:12.406Z,76.37
2018-08-18T05:58:52.639Z,76.38
2018-08-18T06:01:27.543Z,76.28
2018-08-18T06:04:04.073Z,75.84
2018-08-18T06:06:32.549Z,75.47
2018-08-18T06:09:03.755Z,75.12
2018-08-18T06:11:32.789Z,74.84
2018-08-18T06:14:01.759Z,74.42
2018-08-18T06:16:31.144Z,74.04
2018-08-18T06:19:00.516Z,73.66
2018-08-18T06:21:29.039Z,73.27
2018-08-18T06:23:57.954Z,72.80
2018-08-18T06:26:26.851Z,72.73
2018-08-18T06:28:56.105Z,72.60
2018-08-18T06:31:24.822Z,72.47
2018-08-18T06:33:54.132Z,72.34
2018-08-18T06:36:22.580Z,71.71
2018-08-18T06:38:52.800Z,71.50
2018-08-18T06:41:21.469Z,71.03
2018-08-18T06:43:50.274Z,70.79
2018-08-18T06:46:19.013Z,70.49
2018-08-18T06:48:47.180Z,69.69
2018-08-18T06:51:15.690Z,69.31
2018-08-18T06:53:47.237Z,68.71
2018-08-18T06:56:18.472Z,68.22
2018-08-18T06:58:49.694Z,68.26
2018-08-18T07:01:18.084Z,68.22
2018-08-18T07:03:53.695Z,68.42
2018-08-18T07:06:24.626Z,68.22
2018-08-18T07:08:54.725Z,67.44
2018-08-18T07:11:30.293Z,67.39
2018-08-18T07:14:02.964Z,66.41
2018-08-18T07:19:18.170Z,66.71
2018-08-18T07:21:47.506Z,66.73
2018-08-18T07:24:20.929Z,66.04
2018-08-18T07:26:50.865Z,65.40
2018-08-18T07:29:22.126Z,64.81
2018-08-18T07:31:51.233Z,64.55
2018-08-18T07:34:20.905Z,64.26
2018-08-18T07:36:49.619Z,63.47
2018-08-18T07:39:18.729Z,63.38
2018-08-18T07:41:46.934Z,62.20
2018-08-18T07:44:15.263Z,61.94
2018-08-18T07:46:44.377Z,61.60
2018-08-18T07:49:22.894Z,61.77
2018-08-18T07:51:53.586Z,61.33
2018-08-18T07:54:29.148Z,61.77
2018-08-18T07:57:02.365Z,60.95
2018-08-18T07:59:36.087Z,60.83
2018-08-18T08:02:12.688Z,60.64
2018-08-18T08:04:42.550Z,60.84
2018-08-18T08:07:18.621Z,60.80
2018-08-18T08:12:39.058Z,61.11
2018-08-18T08:15:15.127Z,61.09
2018-08-18T08:20:29.624Z,61.16
2018-08-18T08:22:58.791Z,60.89
2018-08-18T08:25:27.409Z,59.96
2018-08-18T08:27:56.753Z,59.50
2018-08-18T08:30:27.306Z,59.65
2018-08-18T08:35:38.520Z,59.93
2018-08-18T08:38:12.590Z,60.00
2018-08-18T08:40:43.326Z,60.05
2018-08-18T08:43:49.579Z,59.42
2018-08-18T08:46:19.720Z,59.09
2018-08-18T08:48:56.433Z,58.96
2018-08-18T08:51:26.132Z,58.10
2018-08-18T08:53:56.885Z,58.25
2018-08-18T08:56:33.273Z,58.22
2018-08-18T08:59:05.983Z,58.00
2018-08-18T09:01:37.245Z,58.64
2018-08-18T09:04:11.142Z,57.74
2018-08-18T09:06:48.975Z,57.94
2018-08-18T09:09:23.436Z,58.13
2018-08-18T09:12:03.777Z,58.30
2018-08-18T09:14:33.903Z,57.92
2018-08-18T09:17:04.305Z,57.77
2018-08-18T09:19:33.413Z,57.40
2018-08-18T09:22:05.155Z,57.18
2018-08-18T09:24:35.417Z,56.90
2018-08-18T09:27:05.885Z,56.38
2018-08-18T09:29:40.317Z,56.78
2018-08-18T09:32:09.672Z,57.01
2018-08-18T09:34:44.245Z,55.82
2018-08-18T09:37:13.228Z,55.42
2018-08-18T09:39:43.137Z,55.30
2018-08-18T09:42:12.173Z,54.46
2018-08-18T09:44:46.670Z,53.25
2018-08-18T09:47:16.045Z,53.29
2018-08-18T09:49:45.952Z,53.71
2018-08-18T09:52:19.265Z,53.40
2018-08-18T09:54:48.192Z,52.40
2018-08-18T09:57:17.223Z,52.24
2018-08-18T09:59:46.693Z,53.29
2018-08-18T10:02:18.462Z,52.47
2018-08-18T10:04:54.059Z,51.70
2018-08-18T10:07:23.837Z,50.87
2018-08-18T10:09:53.275Z,50.29
2018-08-18T10:12:21.921Z,50.03
2018-08-18T10:14:54.463Z,49.96
2018-08-18T10:17:23.088Z,49.51
2018-08-18T10:19:51.955Z,49.35
2018-08-18T10:22:20.705Z,48.48
2018-08-18T10:24:48.989Z,47.67
2018-08-18T10:27:18.511Z,47.21
2018-08-18T10:29:46.829Z,46.40
2018-08-18T10:32:15.076Z,44.51
2018-08-18T10:34:43.595Z,45.36
2018-08-18T10:37:12.079Z,45.07
2018-08-18T10:39:40.774Z,44.53
2018-08-18T10:42:13.697Z,43.75
2018-08-18T10:44:47.322Z,42.92
2018-08-18T10:47:17.619Z,42.73
2018-08-18T10:50:00.785Z,43.64
2018-08-18T10:52:40.850Z,44.29
2018-08-18T10:55:10.746Z,43.75
2018-08-18T10:57:52.010Z,44.35
2018-08-18T11:00:22.441Z,44.75
2018-08-18T11:02:52.684Z,44.13
2018-08-18T11:05:22.537Z,44.77
2018-08-18T11:07:57.911Z,44.92
2018-08-18T11:10:27.750Z,44.88
2018-08-18T11:12:57.976Z,44.04
2018-08-18T11:15:27.390Z,43.64
2018-08-18T11:17:56.650Z,43.07
2018-08-18T11:20:26.386Z,42.38
2018-08-18T11:23:04.611Z,42.82
2018-08-18T11:25:38.582Z,41.74
2018-08-18T11:28:08.951Z,41.64
2018-08-18T11:30:38.051Z,41.28
2018-08-18T11:33:06.353Z,42.08
2018-08-18T11:35:35.294Z,41.52
2018-08-18T11:38:09.305Z,41.32
2018-08-18T11:40:37.722Z,40.08
2018-08-18T11:43:07.895Z,39.90
2018-08-18T11:45:39.470Z,40.08
2018-08-18T11:48:12.127Z,40.35
2018-08-18T11:50:42.785Z,40.57
2018-08-18T11:53:11.378Z,41.59
2018-08-18T11:55:39.862Z,41.69
2018-08-18T11:58:09.997Z,41.93
2018-08-18T12:00:42.091Z,42.20
2018-08-18T12:03:11.512Z,42.36
2018-08-18T12:05:46.421Z,42.48
2018-08-18T12:08:16.698Z,42.65
2018-08-18T12:10:46.120Z,42.70
2018-08-18T12:13:15.354Z,42.84
2018-08-18T12:15:55.709Z,42.64
2018-08-18T12:18:26.216Z,42.82
2018-08-18T12:20:56.166Z,43.30
2018-08-18T12:23:24.379Z,43.46
2018-08-18T12:25:59.479Z,44.10
2018-08-18T12:28:34.013Z,44.11
2018-08-18T12:31:05.397Z,44.55
2018-08-18T12:33:34.160Z,45.20
2018-08-18T12:36:03.602Z,44.85
2018-08-18T12:38:36.700Z,44.28
2018-08-18T12:41:05.880Z,44.15
2018-08-18T12:43:38.386Z,43.55
2018-08-18T12:46:12.771Z,42.16
2018-08-18T12:48:46.888Z,40.56
2018-08-18T12:51:20.027Z,40.51
2018-08-18T12:53:54.527Z,40.43
2018-08-18T12:56:26.688Z,39.79
2018-08-18T12:58:55.336Z,39.22
2018-08-18T13:01:36.446Z,40.00
2018-08-18T13:04:08.444Z,38.35
2018-08-18T13:06:43.036Z,38.44
2018-08-18T13:09:14.663Z,37.92
2018-08-18T13:11:51.041Z,37.65
2018-08-18T13:14:26.224Z,36.83
2018-08-18T13:17:02.478Z,37.13
2018-08-18T13:19:37.188Z,37.51
2018-08-18T13:22:06.048Z,38.51
2018-08-18T13:24:34.752Z,38.95
2018-08-18T13:27:04.807Z,39.74
2018-08-18T13:29:33.626Z,40.04
2018-08-18T13:32:03.822Z,40.62
2018-08-18T13:34:32.553Z,40.01
2018-08-18T13:37:01.071Z,39.73
2018-08-18T13:39:30.149Z,40.16
2018-08-18T13:41:59.071Z,40.65
2018-08-18T13:44:35.426Z,40.23
2018-08-18T13:47:04.447Z,40.53
2018-08-18T13:49:33.144Z,41.11
2018-08-18T13:52:02.322Z,41.48
2018-08-18T13:54:30.871Z,41.61
2018-08-18T13:57:00.607Z,41.59
2018-08-18T13:59:46.465Z,41.96
2018-08-18T14:02:15.115Z,41.87
2018-08-18T14:04:47.219Z,41.84
2018-08-18T14:07:18.891Z,42.06
2018-08-18T14:09:53.192Z,42.11
2018-08-18T14:12:22.199Z,42.45
2018-08-18T14:14:51.289Z,43.08
2018-08-18T14:17:21.955Z,43.35
2018-08-18T14:19:51.214Z,43.96
2018-08-18T14:22:21.019Z,43.93
2018-08-18T14:24:50.718Z,42.97
2018-08-18T14:27:22.494Z,42.87
2018-08-18T14:29:53.261Z,42.75
2018-08-18T14:32:29.046Z,42.75
2018-08-18T14:35:06.516Z,42.58
2018-08-18T14:37:39.209Z,42.59
2018-08-18T14:40:12.640Z,42.28
2018-08-18T14:42:42.308Z,42.32
2018-08-18T14:45:15.159Z,42.64
2018-08-18T14:47:45.685Z,42.35
2018-08-18T14:50:31.754Z,42.36
2018-08-18T14:53:00.663Z,41.75
2018-08-18T14:55:29.643Z,41.42
2018-08-18T14:58:02.176Z,41.62
2018-08-18T15:00:31.159Z,41.80
2018-08-18T15:02:59.835Z,41.69
2018-08-18T15:05:28.136Z,41.16
2018-08-18T15:07:58.107Z,41.43
2018-08-18T15:10:35.259Z,41.86
2018-08-18T15:13:04.225Z,41.58
2018-08-18T15:15:33.524Z,41.56
2018-08-18T15:18:05.190Z,41.71
2018-08-18T15:20:34.637Z,41.95
2018-08-18T15:23:04.724Z,41.66
2018-08-18T15:25:34.407Z,41.54
2018-08-18T15:28:06.758Z,41.76
2018-08-18T15:30:37.714Z,42.50
2018-08-18T15:33:08.125Z,42.30
2018-08-18T15:35:37.970Z,42.26
2018-08-18T15:38:07.031Z,42.45
2018-08-18T15:40:35.598Z,42.33
2018-08-18T15:43:03.944Z,42.50
2018-08-18T15:46:03.120Z,42.78
2018-08-18T15:48:32.086Z,43.29
2018-08-18T15:51:02.343Z,43.33
2018-08-18T15:53:47.162Z,43.28
2018-08-18T15:56:15.612Z,43.35
2018-08-18T15:58:45.766Z,43.14
2018-08-18T16:01:15.785Z,42.52
2018-08-18T16:03:46.184Z,42.46
2018-08-18T16:06:15.103Z,42.85
2018-08-18T16:08:43.431Z,43.37
2018-08-18T16:11:13.303Z,44.13
2018-08-18T16:13:41.819Z,44.27
2018-08-18T16:16:10.386Z,44.39
2018-08-18T16:18:38.542Z,44.43
2018-08-18T16:21:14.634Z,44.20
2018-08-18T16:23:44.772Z,44.43
2018-08-18T16:26:13.505Z,45.11
2018-08-18T16:28:42.206Z,45.43
2018-08-18T16:31:11.100Z,45.28
2018-08-18T16:33:39.719Z,45.05
2018-08-18T16:36:08.428Z,45.24
2018-08-18T16:38:36.943Z,45.81
2018-08-18T16:41:05.547Z,45.84
2018-08-18T16:43:35.947Z,45.70
2018-08-18T16:46:22.668Z,45.83
2018-08-18T16:48:54.636Z,46.19
2018-08-18T16:51:23.223Z,45.98
2018-08-18T16:53:51.617Z,45.79
2018-08-18T16:56:22.567Z,45.89
2018-08-18T16:58:51.913Z,46.05
2018-08-18T17:01:20.840Z,46.11
2018-08-18T17:03:50.541Z,46.65
2018-08-18T17:06:19.570Z,47.14
2018-08-18T17:08:48.346Z,47.69
2018-08-18T17:11:17.196Z,47.94
2018-08-18T17:13:46.973Z,48.14
2018-08-18T17:16:15.505Z,48.37
2018-08-18T17:18:45.148Z,48.44
2018-08-18T17:21:17.113Z,48.59
2018-08-18T17:23:45.480Z,48.79
2018-08-18T17:26:16.436Z,49.12
2018-08-18T17:28:54.615Z,49.15
2018-08-18T17:31:26.148Z,49.46
2018-08-18T17:33:57.181Z,49.75
2018-08-18T17:36:31.445Z,49.88
2018-08-18T17:39:00.106Z,50.29
2018-08-18T17:41:28.789Z,50.64
2018-08-18T17:44:01.404Z,50.91
2018-08-18T17:46:30.708Z,51.25
2018-08-18T17:49:04.084Z,51.46
2018-08-18T17:51:35.549Z,51.78
2018-08-18T17:54:06.057Z,52.05
2018-08-18T17:56:36.135Z,52.38
2018-08-18T17:59:06.522Z,52.84
2018-08-18T18:01:47.491Z,53.25
2018-08-18T18:04:16.206Z,53.51
2018-08-18T18:06:44.490Z,53.95
2018-08-18T18:09:13.190Z,54.27
2018-08-18T18:11:42.696Z,54.47
2018-08-18T18:14:11.457Z,54.78
2018-08-18T18:16:42.448Z,55.14
2018-08-18T18:19:12.187Z,55.48
2018-08-18T18:21:45.849Z,55.66
2018-08-18T18:24:14.256Z,56.06
2018-08-18T18:26:47.223Z,56.34
2018-08-18T18:29:21.919Z,56.77
2018-08-18T18:31:51.249Z,56.82
2018-08-18T18:34:19.616Z,57.35
2018-08-18T18:36:50.581Z,57.60
2018-08-18T18:39:20.709Z,57.98
2018-08-18T18:41:49.014Z,58.34
2018-08-18T18:44:18.651Z,58.32
2018-08-18T18:46:47.013Z,58.60
2018-08-18T18:49:38.770Z,58.86
2018-08-18T18:52:07.793Z,59.17
2018-08-18T18:54:36.936Z,59.44
2018-08-18T18:57:07.106Z,59.82
2018-08-18T18:59:42.747Z,60.23
2018-08-18T19:02:11.296Z,60.50
2018-08-18T19:04:40.299Z,60.83
2018-08-18T19:07:11.254Z,61.06
2018-08-18T19:09:39.599Z,61.17
2018-08-18T19:12:08.963Z,61.41
2018-08-18T19:14:38.198Z,61.67
2018-08-18T19:17:09.207Z,61.96
2018-08-18T19:19:39.321Z,62.11
2018-08-18T19:22:10.765Z,62.44
2018-08-18T19:24:39.389Z,62.70
2018-08-18T19:27:09.639Z,62.75
2018-08-18T19:29:41.041Z,62.86
2018-08-18T19:32:10.649Z,63.16
2018-08-18T19:34:39.167Z,63.36
2018-08-18T19:37:09.958Z,63.64
2018-08-18T19:39:39.370Z,63.99
2018-08-18T19:42:18.573Z,64.20
2018-08-18T19:44:49.734Z,64.35
2018-08-18T19:47:32.410Z,64.49
2018-08-18T19:52:38.690Z,64.99
2018-08-18T19:55:10.931Z,65.12
2018-08-18T19:57:42.698Z,65.43
2018-08-18T20:00:22.838Z,65.69
2018-08-18T20:03:04.347Z,65.94
2018-08-18T20:05:43.166Z,66.48
2018-08-18T20:08:17.695Z,66.73
2018-08-18T20:10:54.669Z,67.08
2018-08-18T20:13:26.469Z,67.35
2018-08-18T20:15:59.428Z,67.43
2018-08-18T20:18:29.938Z,67.61
2018-08-18T20:21:00.051Z,67.77
2018-08-18T20:23:31.820Z,67.83
2018-08-18T20:26:02.656Z,68.13
2018-08-18T20:28:32.107Z,67.87
2018-08-18T20:31:01.629Z,68.72
2018-08-18T20:33:31.282Z,68.85
2018-08-18T20:36:00.510Z,69.25
2018-08-18T20:38:37.356Z,69.32
2018-08-18T20:41:10.669Z,70.18
2018-08-18T20:43:46.330Z,70.28
2018-08-18T20:46:17.149Z,70.77
2018-08-18T20:48:45.622Z,70.35
2018-08-18T20:51:21.396Z,70.94
2018-08-18T20:53:50.003Z,71.44
2018-08-18T20:56:18.630Z,71.40
2018-08-18T20:58:47.147Z,71.59
2018-08-18T21:01:15.794Z,71.33
2018-08-18T21:03:48.989Z,71.29
2018-08-18T21:06:18.242Z,71.41
2018-08-18T21:08:50.332Z,71.29
2018-08-18T21:11:19.511Z,71.42
2018-08-18T21:13:49.525Z,71.52
2018-08-18T21:16:21.268Z,71.84
2018-08-18T21:18:51.912Z,72.31
2018-08-18T21:21:27.698Z,72.22
2018-08-18T21:23:57.761Z,72.66
2018-08-18T21:26:29.022Z,73.16
2018-08-18T21:28:58.194Z,73.19
2018-08-18T21:31:31.906Z,73.16
2018-08-18T21:34:05.638Z,73.13
2018-08-18T21:36:36.205Z,73.36
2018-08-18T21:39:07.524Z,73.89
2018-08-18T21:41:37.786Z,73.76
2018-08-18T21:44:08.810Z,73.54
2018-08-18T21:46:40.891Z,73.24
2018-08-18T21:49:11.023Z,73.12
2018-08-18T21:51:41.950Z,73.37
2018-08-18T21:54:10.365Z,73.67
2018-08-18T21:56:40.828Z,74.17
2018-08-18T21:59:11.046Z,74.58
2018-08-18T22:01:40.379Z,75.10
2018-08-18T22:04:10.106Z,75.04
2018-08-18T22:06:39.207Z,74.71
2018-08-18T22:09:20.568Z,74.71
2018-08-18T22:11:49.234Z,74.98
2018-08-18T22:14:21.078Z,75.56
2018-08-18T22:17:07.356Z,75.85
2018-08-18T22:19:37.039Z,76.11
2018-08-18T22:22:06.832Z,76.39
2018-08-18T22:24:35.291Z,76.21
2018-08-18T22:27:04.236Z,76.12
2018-08-18T22:29:32.948Z,75.82
2018-08-18T22:32:11.823Z,75.52
2018-08-18T22:34:41.144Z,75.44
2018-08-18T22:37:15.141Z,75.33
2018-08-18T22:39:44.380Z,75.56
2018-08-18T22:42:15.176Z,75.41
2018-08-18T22:44:45.296Z,75.29
2018-08-18T22:47:15.273Z,75.81
2018-08-18T22:49:43.820Z,76.31
2018-08-18T22:52:12.042Z,76.32
2018-08-18T22:54:40.916Z,77.25
2018-08-18T22:57:12.942Z,77.38
2018-08-18T22:59:41.705Z,77.17
2018-08-18T23:02:10.703Z,76.81
2018-08-18T23:04:41.337Z,77.42
2018-08-18T23:07:14.794Z,77.79
2018-08-18T23:09:48.671Z,77.91
2018-08-18T23:12:19.890Z,78.60
2018-08-18T23:14:49.268Z,79.18
2018-08-18T23:17:22.335Z,79.54
2018-08-18T23:19:55.622Z,80.22
2018-08-18T23:22:42.313Z,80.20
2018-08-18T23:25:12.035Z,79.87
2018-08-18T23:27:42.253Z,79.69
2018-08-18T23:30:21.177Z,78.96
2018-08-18T23:32:54.667Z,77.77
2018-08-18T23:35:30.917Z,76.27
2018-08-18T23:38:00.441Z,75.02
2018-08-18T23:40:33.361Z,73.74
2018-08-18T23:43:03.108Z,72.07
2018-08-18T23:45:39.092Z,70.62
2018-08-18T23:48:10.883Z,69.38
2018-08-18T23:50:41.555Z,68.89
2018-08-18T23:53:13.167Z,68.76
2018-08-18T23:55:48.666Z,67.84
2018-08-18T23:58:22.364Z,67.96
